createdAt,value
2023-04-25T00:01:49.605Z,4.82
2023-04-25T00:04:16.962Z,2.35
2023-04-25T00:06:43.684Z,2.50
2023-04-25T00:09:11.132Z,2.30
2023-04-25T00:11:38.660Z,2.95
2023-04-25T00:14:05.805Z,3.00
2023-04-25T00:16:34.834Z,3.78
2023-04-25T00:19:02.480Z,3.33
2023-04-25T00:21:29.286Z,4.82
2023-04-25T00:23:56.702Z,5.60
2023-04-25T00:26:23.144Z,3.90
2023-04-25T00:28:49.648Z,5.95
2023-04-25T00:31:16.170Z,8.02
2023-04-25T00:33:42.647Z,2.08
2023-04-25T00:36:09.645Z,2.25
2023-04-25T00:38:36.709Z,3.90
2023-04-25T00:41:03.140Z,3.42
2023-04-25T00:43:33.259Z,4.72
2023-04-25T00:46:01.634Z,1.55
2023-04-25T00:48:28.379Z,2.53
2023-04-25T00:50:57.545Z,2.03
2023-04-25T00:53:25.590Z,1.63
2023-04-25T00:55:52.986Z,3.53
2023-04-25T00:58:20.867Z,1.92
2023-04-25T01:00:48.721Z,2.38
2023-04-25T01:03:21.310Z,1.90
2023-04-25T01:05:49.007Z,1.83
2023-04-25T01:08:15.786Z,2.13
2023-04-25T01:10:42.197Z,2.40
2023-04-25T01:13:09.091Z,3.08
2023-04-25T01:15:36.887Z,3.40
2023-04-25T01:18:05.152Z,3.28
2023-04-25T01:20:33.448Z,5.28
2023-04-25T01:23:01.251Z,3.33
2023-04-25T01:25:27.818Z,2.67
2023-04-25T01:27:54.419Z,4.40
2023-04-25T01:30:20.978Z,3.85
2023-04-25T01:32:49.189Z,3.55
2023-04-25T01:35:15.909Z,4.60
2023-04-25T01:37:43.920Z,3.08
2023-04-25T01:40:12.114Z,2.92
2023-04-25T01:42:41.655Z,4.22
2023-04-25T01:45:09.449Z,5.47
2023-04-25T01:47:36.259Z,6.50
2023-04-25T01:50:04.126Z,5.63
2023-04-25T01:52:30.708Z,4.40
2023-04-25T01:55:00.536Z,3.65
2023-04-25T01:57:27.018Z,4.93
2023-04-25T01:59:59.971Z,4.47
2023-04-25T02:02:27.213Z,5.57
2023-04-25T02:04:55.086Z,3.45
2023-04-25T02:07:21.756Z,2.85
2023-04-25T02:09:48.260Z,3.72
2023-04-25T02:12:14.755Z,4.38
2023-04-25T02:14:41.153Z,4.25
2023-04-25T02:17:08.121Z,3.45
2023-04-25T02:19:34.770Z,4.93
2023-04-25T02:22:01.659Z,3.08
2023-04-25T02:24:28.934Z,4.00
2023-04-25T02:26:56.870Z,3.60
2023-04-25T02:29:24.049Z,3.63
2023-04-25T02:31:50.812Z,5.25
2023-04-25T02:34:17.353Z,3.00
2023-04-25T02:36:43.923Z,3.90
2023-04-25T02:40:12.893Z,5.20
2023-04-25T02:42:39.343Z,5.18
2023-04-25T02:45:06.195Z,2.90
2023-04-25T02:47:32.803Z,3.65
2023-04-25T02:49:59.300Z,3.88
2023-04-25T02:52:26.312Z,2.45
2023-04-25T02:54:52.741Z,4.75
2023-04-25T02:57:19.310Z,2.90
2023-04-25T02:59:45.758Z,3.03
2023-04-25T03:02:12.256Z,2.60
2023-04-25T03:04:38.746Z,3.20
2023-04-25T03:07:05.309Z,2.95
2023-04-25T03:09:31.753Z,3.65
2023-04-25T03:11:58.260Z,3.60
2023-04-25T03:14:24.649Z,3.20
2023-04-25T03:16:51.084Z,4.00
2023-04-25T03:19:17.934Z,3.90
2023-04-25T03:21:44.722Z,4.85
2023-04-25T03:24:12.100Z,3.72
2023-04-25T03:26:38.557Z,3.63
2023-04-25T03:29:04.979Z,2.78
2023-04-25T03:31:31.911Z,3.42
2023-04-25T03:33:58.518Z,3.65
2023-04-25T03:36:24.922Z,6.72
2023-04-25T03:38:51.759Z,4.10
2023-04-25T03:41:18.186Z,3.92
2023-04-25T03:43:44.577Z,5.38
2023-04-25T03:46:11.075Z,3.10
2023-04-25T03:48:37.550Z,4.60
2023-04-25T03:51:04.206Z,3.75
2023-04-25T03:53:30.653Z,5.43
2023-04-25T03:55:57.018Z,4.05
2023-04-25T03:58:25.260Z,4.75
2023-04-25T04:00:51.682Z,3.65
2023-04-25T04:03:18.343Z,4.95
2023-04-25T04:05:46.116Z,8.40
2023-04-25T04:08:12.885Z,5.45
2023-04-25T04:10:39.312Z,5.22
2023-04-25T04:13:05.784Z,5.05
2023-04-25T04:15:33.872Z,5.47
2023-04-25T04:18:03.809Z,5.10
2023-04-25T04:20:31.457Z,5.93
2023-04-25T04:22:58.328Z,4.30
2023-04-25T04:25:25.580Z,6.03
2023-04-25T04:27:55.599Z,5.53
2023-04-25T04:30:25.117Z,7.57
2023-04-25T04:32:52.708Z,4.70
2023-04-25T04:35:19.291Z,8.05
2023-04-25T04:37:46.681Z,10.57
2023-04-25T04:40:16.203Z,5.40
2023-04-25T04:42:48.991Z,6.45
2023-04-25T04:45:15.722Z,5.40
2023-04-25T04:47:42.241Z,5.30
2023-04-25T04:50:10.306Z,4.30
2023-04-25T04:52:37.583Z,6.00
2023-04-25T04:55:05.425Z,7.40
2023-04-25T04:57:33.710Z,4.90
2023-04-25T05:00:00.570Z,5.15
2023-04-25T05:02:27.362Z,6.85
2023-04-25T05:04:53.991Z,10.63
2023-04-25T05:07:20.554Z,4.63
2023-04-25T05:09:46.935Z,5.82
2023-04-25T05:12:13.623Z,5.55
2023-04-25T05:14:40.023Z,6.97
2023-04-25T05:17:09.275Z,4.97
2023-04-25T05:19:35.757Z,6.25
2023-04-25T05:22:03.204Z,6.25
2023-04-25T05:24:29.713Z,7.43
2023-04-25T05:26:56.097Z,4.82
2023-04-25T05:29:22.530Z,6.60
2023-04-25T05:31:49.224Z,10.98
2023-04-25T05:34:16.222Z,7.20
2023-04-25T05:36:42.683Z,5.82
2023-04-25T05:39:09.838Z,6.70
2023-04-25T05:41:36.222Z,5.88
2023-04-25T05:44:03.301Z,6.30
2023-04-25T05:46:29.772Z,6.05
2023-04-25T05:48:56.233Z,8.27
2023-04-25T05:51:22.645Z,4.97
2023-04-25T05:53:49.237Z,5.72
2023-04-25T05:56:15.968Z,7.32
2023-04-25T05:58:42.447Z,3.97
2023-04-25T06:01:09.887Z,5.25
2023-04-25T06:03:36.657Z,6.45
2023-04-25T06:06:03.527Z,6.88
2023-04-25T06:08:30.082Z,6.93
2023-04-25T06:10:56.503Z,4.97
2023-04-25T06:13:22.967Z,6.18
2023-04-25T06:15:49.408Z,4.57
2023-04-25T06:18:15.880Z,4.07
2023-04-25T06:20:42.282Z,5.47
2023-04-25T06:23:08.673Z,5.38
2023-04-25T06:25:35.260Z,5.55
2023-04-25T06:28:01.794Z,6.38
2023-04-25T06:30:28.346Z,3.92
2023-04-25T06:32:54.959Z,6.38
2023-04-25T06:35:21.450Z,4.07
2023-04-25T06:37:48.278Z,3.88
2023-04-25T06:40:14.937Z,2.58
2023-04-25T06:42:41.365Z,5.68
2023-04-25T06:45:08.426Z,2.72
2023-04-25T06:47:34.955Z,3.58
2023-04-25T06:50:01.676Z,4.57
2023-04-25T06:52:28.160Z,6.25
2023-04-25T06:54:54.641Z,4.13
2023-04-25T06:57:21.019Z,6.70
2023-04-25T06:59:47.454Z,7.85
2023-04-25T07:02:13.999Z,3.55
2023-04-25T07:04:40.656Z,3.95
2023-04-25T07:07:07.226Z,3.78
2023-04-25T07:09:34.899Z,3.22
2023-04-25T07:12:02.575Z,3.67
2023-04-25T07:14:29.440Z,4.90
2023-04-25T07:16:57.853Z,3.38
2023-04-25T07:19:27.426Z,3.35
2023-04-25T07:21:54.226Z,5.70
2023-04-25T07:24:20.781Z,5.00
2023-04-25T07:26:47.344Z,3.40
2023-04-25T07:29:13.786Z,4.57
2023-04-25T07:31:40.465Z,4.15
2023-04-25T07:34:07.011Z,5.68
2023-04-25T07:36:33.456Z,4.28
2023-04-25T07:39:02.644Z,3.83
2023-04-25T07:41:29.147Z,3.67
2023-04-25T07:43:55.935Z,4.05
2023-04-25T07:46:22.457Z,5.45
2023-04-25T07:48:49.330Z,3.00
2023-04-25T07:51:16.186Z,4.82
2023-04-25T07:53:42.593Z,3.03
2023-04-25T07:56:09.016Z,5.07
2023-04-25T07:58:35.865Z,2.80
2023-04-25T08:01:02.480Z,3.38
2023-04-25T08:03:29.139Z,2.45
2023-04-25T08:05:56.621Z,4.03
2023-04-25T08:08:29.786Z,2.38
2023-04-25T08:10:56.483Z,2.40
2023-04-25T08:13:22.916Z,2.70
2023-04-25T08:15:49.492Z,1.42
2023-04-25T08:18:17.539Z,5.30
2023-04-25T08:20:44.337Z,2.25
2023-04-25T08:23:11.779Z,2.28
2023-04-25T08:25:38.224Z,1.83
2023-04-25T08:28:04.773Z,1.85
2023-04-25T08:30:31.293Z,1.63
2023-04-25T08:32:57.823Z,1.60
2023-04-25T08:35:24.303Z,3.67
2023-04-25T08:37:50.805Z,2.88
2023-04-25T08:40:17.276Z,2.25
2023-04-25T08:42:43.888Z,1.95
2023-04-25T08:45:10.851Z,6.20
2023-04-25T08:47:38.985Z,4.88
2023-04-25T08:50:06.554Z,3.42
2023-04-25T08:52:39.971Z,3.13
2023-04-25T08:55:10.004Z,2.38
2023-04-25T08:57:37.824Z,2.42
2023-04-25T09:00:05.273Z,2.95
2023-04-25T09:02:32.163Z,4.22
2023-04-25T09:04:58.735Z,3.80
2023-04-25T09:07:26.621Z,1.58
2023-04-25T09:09:53.249Z,3.20
2023-04-25T09:12:20.723Z,2.50
2023-04-25T09:15:11.136Z,1.58
2023-04-25T09:17:41.374Z,2.27
2023-04-25T09:20:13.269Z,2.30
2023-04-25T09:22:40.116Z,1.58
2023-04-25T09:25:15.429Z,3.95
2023-04-25T09:27:53.048Z,1.15
2023-04-25T09:30:20.112Z,2.20
2023-04-25T09:32:46.634Z,3.90
2023-04-25T09:35:25.351Z,2.38
2023-04-25T09:37:51.932Z,2.60
2023-04-25T09:40:19.526Z,5.32
2023-04-25T09:42:46.270Z,3.47
2023-04-25T09:45:16.094Z,2.78
2023-04-25T09:47:44.985Z,2.47
2023-04-25T09:50:16.923Z,2.45
2023-04-25T09:52:44.139Z,2.45
2023-04-25T09:55:10.690Z,2.35
2023-04-25T09:57:40.682Z,4.80
2023-04-25T10:00:11.978Z,2.38
2023-04-25T10:02:42.594Z,4.13
2023-04-25T10:05:09.577Z,2.47
2023-04-25T10:07:39.109Z,3.20
2023-04-25T10:10:07.267Z,4.05
2023-04-25T10:12:34.591Z,4.20
2023-04-25T10:15:02.369Z,4.45
2023-04-25T10:17:29.212Z,3.70
2023-04-25T10:19:56.260Z,4.47
2023-04-25T10:22:42.331Z,2.95
2023-04-25T10:25:10.037Z,3.83
2023-04-25T10:27:37.111Z,6.30
2023-04-25T10:30:15.398Z,4.90
2023-04-25T10:32:51.466Z,2.20
2023-04-25T10:35:20.452Z,2.65
2023-04-25T10:38:13.551Z,6.38
2023-04-25T10:40:40.371Z,3.65
2023-04-25T10:43:31.783Z,4.03
2023-04-25T10:46:01.376Z,2.47
2023-04-25T10:48:32.516Z,3.38
2023-04-25T10:51:12.562Z,3.97
2023-04-25T10:53:39.092Z,3.30
2023-04-25T10:56:14.540Z,5.30
2023-04-25T10:58:45.640Z,2.60
2023-04-25T11:03:44.444Z,2.90
2023-04-25T11:06:23.650Z,3.15
2023-04-25T11:08:52.405Z,3.05
2023-04-25T11:11:19.773Z,2.70
2023-04-25T11:13:50.873Z,2.83
2023-04-25T11:18:54.391Z,2.22
2023-04-25T11:21:21.032Z,2.67
2023-04-25T11:23:47.528Z,3.60
2023-04-25T11:26:16.325Z,5.47
2023-04-25T11:28:46.489Z,3.22
2023-04-25T11:31:13.001Z,5.67
2023-04-25T11:33:41.672Z,1.52
2023-04-25T11:36:08.392Z,1.50
2023-04-25T11:38:35.338Z,2.22
2023-04-25T11:41:02.235Z,2.85
2023-04-25T11:43:29.292Z,2.47
2023-04-25T11:45:55.949Z,2.47
2023-04-25T11:48:26.292Z,6.20
2023-04-25T11:50:54.856Z,3.92
2023-04-25T11:53:21.429Z,2.67
2023-04-25T11:55:48.773Z,2.58
2023-04-25T11:58:15.390Z,3.00
2023-04-25T12:00:50.667Z,3.15
2023-04-25T12:03:32.342Z,2.53
2023-04-25T12:06:05.119Z,2.85
2023-04-25T12:08:31.724Z,2.17
2023-04-25T12:10:58.146Z,1.95
2023-04-25T12:13:26.727Z,2.00
2023-04-25T12:15:56.573Z,2.50
2023-04-25T12:18:26.403Z,2.42
2023-04-25T12:20:53.985Z,3.63
2023-04-25T12:23:29.887Z,3.53
2023-04-25T12:25:57.090Z,2.97
2023-04-25T12:28:25.648Z,3.97
2023-04-25T12:31:06.648Z,2.25
2023-04-25T12:33:38.102Z,2.50
2023-04-25T12:36:09.884Z,3.80
2023-04-25T12:38:44.116Z,2.60
2023-04-25T12:41:11.015Z,3.42
2023-04-25T12:43:37.447Z,5.05
2023-04-25T12:46:04.453Z,2.10
2023-04-25T12:48:31.061Z,3.75
2023-04-25T12:50:57.468Z,2.58
2023-04-25T12:53:25.344Z,3.38
2023-04-25T12:55:51.951Z,2.10
2023-04-25T12:58:19.901Z,2.55
2023-04-25T13:00:47.190Z,3.95
2023-04-25T13:03:13.975Z,3.90
2023-04-25T13:05:41.261Z,3.17
2023-04-25T13:08:07.701Z,1.90
2023-04-25T13:10:34.950Z,2.63
2023-04-25T13:13:02.177Z,2.05
2023-04-25T13:15:29.008Z,3.55
2023-04-25T13:17:55.452Z,2.58
2023-04-25T13:20:29.200Z,6.90
2023-04-25T13:22:56.151Z,4.25
2023-04-25T13:25:25.879Z,2.42
2023-04-25T13:27:52.420Z,4.15
2023-04-25T13:30:21.631Z,2.65
2023-04-25T13:32:48.157Z,6.03
2023-04-25T13:35:15.094Z,3.20
2023-04-25T13:37:41.623Z,2.00
2023-04-25T13:40:12.360Z,1.95
2023-04-25T13:42:39.877Z,2.30
2023-04-25T13:45:07.108Z,4.50
2023-04-25T13:47:34.317Z,1.42
2023-04-25T13:50:01.731Z,2.90
2023-04-25T13:52:28.238Z,1.88
2023-04-25T13:54:54.895Z,2.30
2023-04-25T13:57:21.452Z,4.85
2023-04-25T13:59:48.079Z,0.50
2023-04-25T14:02:14.792Z,1.60
2023-04-25T14:04:41.929Z,3.50
2023-04-25T14:07:08.486Z,1.20
2023-04-25T14:09:35.298Z,1.60
2023-04-25T14:12:03.047Z,1.83
2023-04-25T14:14:29.648Z,2.15
2023-04-25T14:16:56.230Z,1.42
2023-04-25T14:19:22.716Z,1.35
2023-04-25T14:21:49.304Z,2.28
2023-04-25T14:24:16.812Z,1.50
2023-04-25T14:26:46.464Z,0.60
2023-04-25T14:29:13.294Z,2.10
2023-04-25T14:31:41.351Z,1.17
2023-04-25T14:34:08.659Z,4.18
2023-04-25T14:36:37.357Z,0.93
2023-04-25T14:39:06.042Z,10.00
2023-04-25T14:41:32.821Z,0.85
2023-04-25T14:43:59.303Z,2.83
2023-04-25T14:46:26.486Z,0.40
2023-04-25T14:48:53.109Z,0.50
2023-04-25T14:51:19.579Z,0.70
2023-04-25T14:53:46.168Z,3.00
2023-04-25T14:56:13.411Z,1.00
2023-04-25T14:58:41.344Z,1.35
2023-04-25T15:01:08.145Z,4.00
2023-04-25T15:03:35.039Z,0.30
2023-04-25T15:06:01.793Z,0.43
2023-04-25T15:08:28.215Z,0.77
2023-04-25T15:10:54.725Z,1.40
2023-04-25T15:13:21.574Z,1.58
2023-04-25T15:15:52.096Z,1.45
2023-04-25T15:18:22.967Z,0.70
2023-04-25T15:20:49.668Z,2.97
2023-04-25T15:23:16.425Z,2.25
2023-04-25T15:25:43.137Z,1.40
2023-04-25T15:28:09.799Z,1.50
2023-04-25T15:30:36.370Z,1.48
2023-04-25T15:33:03.844Z,3.33
2023-04-25T15:35:30.426Z,0.68
2023-04-25T15:37:56.867Z,2.05
2023-04-25T15:40:23.377Z,0.55
2023-04-25T15:42:51.796Z,1.15
2023-04-25T15:45:19.888Z,1.40
2023-04-25T15:47:46.476Z,1.45
2023-04-25T15:50:14.986Z,1.23
2023-04-25T15:52:42.190Z,1.80
2023-04-25T15:55:09.706Z,1.48
2023-04-25T15:57:37.255Z,2.35
2023-04-25T16:00:17.484Z,2.03
2023-04-25T16:02:45.441Z,6.00
2023-04-25T16:05:14.449Z,2.25
2023-04-25T16:07:42.755Z,1.73
2023-04-25T16:10:11.248Z,2.35
2023-04-25T16:12:41.011Z,4.03
2023-04-25T16:15:08.296Z,2.97
2023-04-25T16:17:35.163Z,1.17
2023-04-25T16:20:10.140Z,1.52
2023-04-25T16:22:38.828Z,1.75
2023-04-25T16:25:06.193Z,1.48
2023-04-25T16:27:34.722Z,1.33
2023-04-25T16:30:02.069Z,0.65
2023-04-25T16:32:28.570Z,0.73
2023-04-25T16:34:56.401Z,1.45
2023-04-25T16:37:24.528Z,0.98
2023-04-25T16:39:51.171Z,1.20
2023-04-25T16:42:17.618Z,1.25
2023-04-25T16:44:44.362Z,1.65
2023-04-25T16:47:12.189Z,1.90
2023-04-25T16:49:41.038Z,0.98
2023-04-25T16:52:07.556Z,1.08
2023-04-25T16:54:33.961Z,0.68
2023-04-25T16:57:01.389Z,2.42
2023-04-25T16:59:27.883Z,1.30
2023-04-25T17:01:54.750Z,0.30
2023-04-25T17:04:21.471Z,1.25
2023-04-25T17:06:48.436Z,0.70
2023-04-25T17:09:15.278Z,2.25
2023-04-25T17:11:42.049Z,0.82
2023-04-25T17:14:08.600Z,0.30
2023-04-25T17:16:44.026Z,2.35
2023-04-25T17:19:10.525Z,1.20
2023-04-25T17:21:37.965Z,0.28
2023-04-25T17:24:09.563Z,2.88
2023-04-25T17:26:36.839Z,0.80
2023-04-25T17:29:04.213Z,0.55
2023-04-25T17:31:31.061Z,0.93
2023-04-25T17:33:57.674Z,0.60
2023-04-25T17:36:24.563Z,0.63
2023-04-25T17:38:51.267Z,0.55
2023-04-25T17:41:18.787Z,0.68
2023-04-25T17:43:45.671Z,1.95
2023-04-25T17:46:12.111Z,1.17
2023-04-25T17:48:38.556Z,0.20
2023-04-25T17:51:05.152Z,0.80
2023-04-25T17:53:31.600Z,0.50
2023-04-25T17:55:58.361Z,0.82
2023-04-25T17:58:25.051Z,0.90
2023-04-25T18:00:51.553Z,0.85
2023-04-25T18:03:18.194Z,0.57
2023-04-25T18:05:44.705Z,1.98
2023-04-25T18:08:11.280Z,0.98
2023-04-25T18:10:38.825Z,0.90
2023-04-25T18:13:05.378Z,1.92
2023-04-25T18:15:31.852Z,0.55
2023-04-25T18:17:58.483Z,1.38
2023-04-25T18:20:25.742Z,1.15
2023-04-25T18:22:52.191Z,2.85
2023-04-25T18:25:18.646Z,1.65
2023-04-25T18:27:45.982Z,1.20
2023-04-25T18:30:13.675Z,1.58
2023-04-25T18:32:40.269Z,1.67
2023-04-25T18:35:07.196Z,2.22
2023-04-25T18:37:33.746Z,0.82
2023-04-25T18:40:05.915Z,0.95
2023-04-25T18:42:33.246Z,1.20
2023-04-25T18:44:59.725Z,1.38
2023-04-25T18:47:26.220Z,1.65
2023-04-25T18:49:52.689Z,2.00
2023-04-25T18:52:19.601Z,1.10
2023-04-25T18:54:46.041Z,1.33
2023-04-25T18:57:14.970Z,0.98
2023-04-25T18:59:42.741Z,1.33
2023-04-25T19:02:09.387Z,1.48
2023-04-25T19:04:36.185Z,1.60
2023-04-25T19:07:03.620Z,1.20
2023-04-25T19:09:30.105Z,1.42
2023-04-25T19:11:57.439Z,1.20
2023-04-25T19:14:23.861Z,1.40
2023-04-25T19:16:50.365Z,1.75
2023-04-25T19:19:16.766Z,1.30
2023-04-25T19:21:43.182Z,1.25
2023-04-25T19:24:09.800Z,1.45
2023-04-25T19:26:36.354Z,1.17
2023-04-25T19:29:14.428Z,0.98
2023-04-25T19:31:44.001Z,2.35
2023-04-25T19:34:11.999Z,2.97
2023-04-25T19:36:39.604Z,1.83
2023-04-25T19:39:07.289Z,1.38
2023-04-25T19:41:36.320Z,1.58
2023-04-25T19:44:07.537Z,3.47
2023-04-25T19:49:01.537Z,3.72
2023-04-25T19:51:28.653Z,2.55
2023-04-25T19:53:55.653Z,4.68
2023-04-25T19:56:22.790Z,2.85
2023-04-25T19:58:49.659Z,2.58
2023-04-25T20:01:17.256Z,3.28
2023-04-25T20:03:44.280Z,12.02
2023-04-25T20:06:11.422Z,15.98
2023-04-25T20:08:37.879Z,9.45
2023-04-25T20:11:04.340Z,4.38
2023-04-25T20:13:31.455Z,2.20
2023-04-25T20:16:00.038Z,1.98
2023-04-25T20:18:29.221Z,3.20
2023-04-25T20:20:55.742Z,3.08
2023-04-25T20:23:22.257Z,2.85
2023-04-25T20:25:48.950Z,5.05
2023-04-25T20:28:15.831Z,2.72
2023-04-25T20:30:42.334Z,2.63
2023-04-25T20:33:09.296Z,2.55
2023-04-25T20:35:36.829Z,2.13
2023-04-25T20:38:03.253Z,4.53
2023-04-25T20:40:29.802Z,3.08
2023-04-25T20:42:56.489Z,3.60
2023-04-25T20:45:24.313Z,2.65
2023-04-25T20:47:50.897Z,3.42
2023-04-25T20:50:17.514Z,2.70
2023-04-25T20:52:44.340Z,3.20
2023-04-25T20:55:11.862Z,3.97
2023-04-25T20:57:38.355Z,4.22
2023-04-25T21:00:16.647Z,4.53
2023-04-25T21:02:43.171Z,4.45
2023-04-25T21:05:10.777Z,3.92
2023-04-25T21:07:38.260Z,5.63
2023-04-25T21:10:05.240Z,4.60
2023-04-25T21:12:31.807Z,4.05
2023-04-25T21:15:00.337Z,3.58
2023-04-25T21:17:27.242Z,5.03
2023-04-25T21:19:53.900Z,4.80
2023-04-25T21:22:21.493Z,3.03
2023-04-25T21:24:50.473Z,2.83
2023-04-25T21:27:19.840Z,3.83
2023-04-25T21:29:46.329Z,3.33
2023-04-25T21:32:16.770Z,3.70
2023-04-25T21:34:43.611Z,3.87
2023-04-25T21:37:10.371Z,3.22
2023-04-25T21:39:36.797Z,9.13
2023-04-25T21:42:06.273Z,5.10
2023-04-25T21:44:32.975Z,3.78
2023-04-25T21:46:59.455Z,5.65
2023-04-25T21:49:29.327Z,4.28
2023-04-25T21:51:56.980Z,9.18
2023-04-25T21:54:23.471Z,3.30
2023-04-25T21:56:49.935Z,3.63
2023-04-25T21:59:16.356Z,4.00
2023-04-25T22:01:43.484Z,5.43
2023-04-25T22:04:10.127Z,5.07
2023-04-25T22:06:36.742Z,4.40
2023-04-25T22:09:04.729Z,5.43
2023-04-25T22:11:31.129Z,4.57
2023-04-25T22:13:57.558Z,5.53
2023-04-25T22:16:24.205Z,4.75
2023-04-25T22:18:52.115Z,7.72
2023-04-25T22:21:18.686Z,4.65
2023-04-25T22:23:45.099Z,4.40
2023-04-25T22:26:12.462Z,6.15
2023-04-25T22:28:39.744Z,5.05
2023-04-25T22:31:06.212Z,6.10
2023-04-25T22:33:33.370Z,6.47
2023-04-25T22:35:59.800Z,5.25
2023-04-25T22:38:26.410Z,6.38
2023-04-25T22:40:52.974Z,4.68
2023-04-25T22:43:19.722Z,4.55
2023-04-25T22:45:46.381Z,5.70
2023-04-25T22:48:13.376Z,4.75
2023-04-25T22:50:40.874Z,4.47
2023-04-25T22:53:09.146Z,5.53
2023-04-25T22:55:36.865Z,4.22
2023-04-25T22:58:04.340Z,5.65
2023-04-25T23:00:31.030Z,5.88
2023-04-25T23:02:58.072Z,6.47
2023-04-25T23:05:24.688Z,6.63
2023-04-25T23:07:51.392Z,5.13
2023-04-25T23:10:18.685Z,4.05
2023-04-25T23:12:45.361Z,8.63
2023-04-25T23:15:13.446Z,4.85
2023-04-25T23:17:40.539Z,7.32
2023-04-25T23:20:10.019Z,6.22
2023-04-25T23:22:36.420Z,4.50
2023-04-25T23:25:02.862Z,5.93
2023-04-25T23:27:29.318Z,5.78
2023-04-25T23:29:56.634Z,6.15
2023-04-25T23:32:23.266Z,5.57
2023-04-25T23:34:49.670Z,6.70
2023-04-25T23:37:16.105Z,5.53
2023-04-25T23:39:48.725Z,5.03
2023-04-25T23:42:15.163Z,4.85
2023-04-25T23:44:41.616Z,9.20
2023-04-25T23:47:08.162Z,5.20
2023-04-25T23:49:34.659Z,5.40
2023-04-25T23:52:01.142Z,5.97
2023-04-25T23:54:27.525Z,5.95
2023-04-25T23:56:54.008Z,5.97
2023-04-25T23:59:20.948Z,7.43
